createdAt,value
2022-08-10T00:01:51.390Z,76.67
2022-08-10T00:04:22.225Z,77.03
2022-08-10T00:06:52.909Z,77.17
2022-08-10T00:09:23.237Z,77.04
2022-08-10T00:11:51.826Z,77.88
2022-08-10T00:14:20.129Z,77.68
2022-08-10T00:16:48.768Z,77.62
2022-08-10T00:19:18.151Z,78.07
2022-08-10T00:21:46.649Z,77.96
2022-08-10T00:24:15.257Z,78.20
2022-08-10T00:27:57.800Z,78.35
2022-08-10T00:29:33.630Z,78.12
2022-08-10T00:32:01.943Z,78.91
2022-08-10T00:34:30.996Z,78.89
2022-08-10T00:37:00.476Z,78.82
2022-08-10T00:39:30.048Z,79.19
2022-08-10T00:42:08.243Z,79.02
2022-08-10T00:44:40.242Z,79.12
2022-08-10T00:47:21.389Z,79.55
2022-08-10T00:49:58.987Z,79.45
2022-08-10T00:52:32.180Z,79.35
2022-08-10T00:55:02.865Z,79.55
2022-08-10T00:57:33.815Z,79.35
2022-08-10T01:00:02.129Z,79.47
2022-08-10T01:02:32.818Z,79.63
2022-08-10T01:05:07.684Z,79.85
2022-08-10T01:07:51.281Z,79.63
2022-08-10T01:10:35.849Z,80.09
2022-08-10T01:13:13.190Z,79.97
2022-08-10T01:15:54.316Z,80.11
2022-08-10T01:18:37.765Z,80.25
2022-08-10T01:21:30.891Z,79.54
2022-08-10T01:24:23.209Z,79.95
2022-08-10T01:27:28.282Z,80.17
2022-08-10T01:30:08.271Z,80.14
2022-08-10T01:32:45.405Z,80.26
2022-08-10T01:35:18.887Z,80.58
2022-08-10T01:37:55.438Z,80.67
2022-08-10T01:40:26.534Z,81.09
2022-08-10T01:42:59.800Z,81.32
2022-08-10T01:45:46.126Z,81.50
2022-08-10T01:48:31.091Z,81.06
2022-08-10T01:51:10.840Z,81.20
2022-08-10T01:53:43.502Z,81.82
2022-08-10T01:56:16.450Z,82.16
2022-08-10T01:58:47.999Z,82.43
2022-08-10T02:01:21.330Z,82.50
2022-08-10T02:04:03.979Z,83.12
2022-08-10T02:06:38.381Z,83.27
2022-08-10T02:09:09.024Z,83.12
2022-08-10T02:12:05.672Z,83.32
2022-08-10T02:14:34.457Z,83.28
2022-08-10T02:17:58.582Z,83.26
2022-08-10T02:20:05.130Z,83.75
2022-08-10T02:22:38.886Z,83.92
2022-08-10T02:25:39.810Z,84.12
2022-08-10T02:27:59.854Z,84.33
2022-08-10T02:30:30.069Z,84.71
2022-08-10T02:33:00.462Z,84.67
2022-08-10T02:35:33.459Z,84.48
2022-08-10T02:38:23.165Z,84.86
2022-08-10T02:45:17.886Z,84.68
2022-08-10T02:45:25.519Z,85.09
2022-08-10T02:47:09.184Z,84.83
2022-08-10T02:49:43.096Z,84.77
2022-08-10T02:52:20.263Z,85.01
2022-08-10T02:54:53.655Z,85.62
2022-08-10T02:57:28.822Z,85.50
2022-08-10T03:00:03.407Z,85.54
2022-08-10T03:02:36.758Z,86.09
2022-08-10T03:05:12.144Z,85.75
2022-08-10T03:07:47.071Z,85.83
2022-08-10T03:10:19.058Z,86.17
2022-08-10T03:12:51.505Z,86.04
2022-08-10T03:15:22.166Z,86.30
2022-08-10T03:17:58.207Z,86.44
2022-08-10T03:20:38.662Z,86.38
2022-08-10T03:23:12.770Z,86.38
2022-08-10T03:25:53.017Z,86.35
2022-08-10T03:28:24.584Z,86.83
2022-08-10T03:30:54.008Z,86.51
2022-08-10T03:33:23.388Z,86.76
2022-08-10T03:36:40.004Z,87.31
2022-08-10T03:38:43.613Z,86.68
2022-08-10T03:41:16.197Z,86.95
2022-08-10T03:43:48.193Z,86.82
2022-08-10T03:46:20.263Z,87.23
2022-08-10T03:48:52.703Z,87.32
2022-08-10T03:51:23.927Z,87.53
2022-08-10T03:54:05.770Z,87.69
2022-08-10T03:56:37.557Z,87.68
2022-08-10T03:59:07.315Z,87.93
2022-08-10T04:02:46.488Z,87.82
2022-08-10T04:04:25.634Z,88.08
2022-08-10T04:06:58.178Z,87.79
2022-08-10T04:09:54.304Z,88.16
2022-08-10T04:12:20.026Z,88.06
2022-08-10T04:14:50.924Z,88.05
2022-08-10T04:18:04.946Z,88.59
2022-08-10T04:20:18.115Z,88.35
2022-08-10T04:22:52.620Z,88.50
2022-08-10T04:25:22.492Z,88.56
2022-08-10T04:27:51.832Z,88.43
2022-08-10T04:30:20.613Z,88.44
2022-08-10T04:32:53.984Z,88.50
2022-08-10T04:35:24.051Z,88.61
2022-08-10T04:37:57.442Z,88.62
2022-08-10T04:40:30.127Z,88.51
2022-08-10T04:43:11.685Z,88.61
2022-08-10T04:45:47.674Z,88.93
2022-08-10T04:48:40.393Z,88.36
2022-08-10T04:51:10.792Z,88.35
2022-08-10T04:54:05.771Z,88.24
2022-08-10T04:56:33.952Z,88.08
2022-08-10T04:59:02.167Z,88.44
2022-08-10T05:02:21.125Z,88.31
2022-08-10T05:04:36.985Z,87.92
2022-08-10T05:07:15.889Z,88.09
2022-08-10T05:10:02.511Z,88.22
2022-08-10T05:12:31.875Z,88.03
2022-08-10T05:15:00.079Z,87.93
2022-08-10T05:17:28.329Z,88.12
2022-08-10T05:20:04.954Z,88.12
2022-08-10T05:22:36.747Z,88.04
2022-08-10T05:25:10.170Z,88.09
2022-08-10T05:27:39.603Z,87.85
2022-08-10T05:30:09.823Z,88.02
2022-08-10T05:32:56.913Z,87.75
2022-08-10T05:35:27.665Z,87.62
2022-08-10T05:38:11.510Z,87.53
2022-08-10T05:40:47.283Z,87.21
2022-08-10T05:43:19.037Z,87.04
2022-08-10T05:46:18.286Z,87.12
2022-08-10T05:48:41.656Z,86.97
2022-08-10T05:51:27.849Z,86.52
2022-08-10T05:54:02.031Z,86.23
2022-08-10T05:56:56.982Z,86.01
2022-08-10T06:00:29.376Z,85.97
2022-08-10T06:02:30.722Z,85.68
2022-08-10T06:05:12.495Z,85.32
2022-08-10T06:07:46.214Z,85.06
2022-08-10T06:10:31.629Z,84.83
2022-08-10T06:13:30.907Z,84.38
2022-08-10T06:16:06.961Z,84.40
2022-08-10T06:18:35.221Z,83.86
2022-08-10T06:21:04.438Z,83.52
2022-08-10T06:23:34.199Z,83.37
2022-08-10T06:26:11.182Z,83.02
2022-08-10T06:28:53.110Z,82.89
2022-08-10T06:31:48.137Z,82.01
2022-08-10T06:34:22.467Z,81.33
2022-08-10T06:36:52.903Z,80.82
2022-08-10T06:39:37.764Z,80.35
2022-08-10T06:42:17.982Z,79.28
2022-08-10T06:44:56.746Z,78.53
2022-08-10T06:47:31.477Z,77.69
2022-08-10T06:50:08.756Z,77.03
2022-08-10T06:52:39.377Z,76.53
2022-08-10T06:55:12.305Z,76.01
2022-08-10T06:58:00.194Z,75.42
2022-08-10T07:00:34.521Z,74.53
2022-08-10T07:03:10.675Z,74.33
2022-08-10T07:05:50.979Z,73.85
2022-08-10T07:08:22.366Z,73.38
2022-08-10T07:10:52.827Z,72.84
2022-08-10T07:14:14.626Z,72.49
2022-08-10T07:16:14.607Z,71.63
2022-08-10T07:18:44.558Z,70.89
2022-08-10T07:21:15.192Z,70.42
2022-08-10T07:23:56.830Z,70.01
2022-08-10T07:26:30.198Z,69.41
2022-08-10T07:28:59.838Z,68.99
2022-08-10T07:31:55.236Z,68.93
2022-08-10T07:34:28.547Z,68.67
2022-08-10T07:37:02.250Z,68.13
2022-08-10T07:40:03.789Z,67.51
2022-08-10T07:42:23.897Z,66.98
2022-08-10T07:44:52.404Z,66.30
2022-08-10T07:47:52.938Z,66.07
2022-08-10T07:50:24.447Z,65.07
2022-08-10T07:52:54.919Z,64.71
2022-08-10T07:56:04.635Z,63.92
2022-08-10T07:58:13.422Z,63.75
2022-08-10T08:00:43.032Z,62.88
2022-08-10T08:03:15.027Z,62.60
2022-08-10T08:06:02.530Z,62.37
2022-08-10T08:08:34.630Z,61.97
2022-08-10T08:11:04.174Z,60.82
2022-08-10T08:13:32.965Z,60.28
2022-08-10T08:16:17.880Z,60.17
2022-08-10T08:19:23.566Z,60.53
2022-08-10T08:24:07.954Z,60.28
2022-08-10T08:24:35.000Z,59.78
2022-08-10T08:27:04.653Z,59.50
2022-08-10T08:29:36.787Z,58.66
2022-08-10T08:32:06.846Z,59.04
2022-08-10T08:34:40.383Z,57.67
2022-08-10T08:37:12.340Z,57.90
2022-08-10T08:39:48.432Z,57.49
2022-08-10T08:42:54.364Z,57.18
2022-08-10T08:45:31.554Z,57.06
2022-08-10T08:48:39.262Z,56.21
2022-08-10T08:52:08.285Z,56.27
2022-08-10T08:54:23.291Z,56.15
2022-08-10T08:57:04.395Z,55.14
2022-08-10T08:59:51.149Z,55.05
2022-08-10T09:02:40.716Z,54.35
2022-08-10T09:05:29.531Z,53.85
2022-08-10T09:08:27.497Z,53.23
2022-08-10T09:11:01.925Z,52.96
2022-08-10T09:13:36.055Z,52.14
2022-08-10T09:16:24.657Z,52.30
2022-08-10T09:19:03.509Z,52.17
2022-08-10T09:21:52.331Z,52.86
2022-08-10T09:24:49.834Z,52.30
2022-08-10T09:27:22.427Z,50.97
2022-08-10T09:29:59.175Z,50.81
2022-08-10T09:36:16.930Z,50.93
2022-08-10T09:36:19.797Z,49.60
2022-08-10T09:38:42.286Z,49.64
2022-08-10T09:41:27.105Z,49.08
2022-08-10T09:44:08.953Z,49.02
2022-08-10T09:47:10.021Z,48.81
2022-08-10T09:49:56.347Z,48.73
2022-08-10T09:52:41.790Z,48.08
2022-08-10T09:55:18.579Z,47.41
2022-08-10T09:57:59.916Z,47.68
2022-08-10T10:00:36.621Z,46.92
2022-08-10T10:03:17.801Z,47.13
2022-08-10T10:06:01.591Z,47.17
2022-08-10T10:08:42.827Z,47.10
2022-08-10T10:11:18.978Z,46.34
2022-08-10T10:14:06.400Z,45.81
2022-08-10T10:17:03.045Z,45.34
2022-08-10T10:19:55.234Z,45.45
2022-08-10T10:22:43.762Z,44.76
2022-08-10T10:25:24.675Z,45.02
2022-08-10T10:28:44.473Z,44.32
2022-08-10T10:31:29.373Z,43.73
2022-08-10T10:34:10.374Z,43.00
2022-08-10T10:36:41.512Z,43.24
2022-08-10T10:39:13.730Z,42.49
2022-08-10T10:42:03.650Z,41.80
2022-08-10T10:44:54.403Z,42.57
2022-08-10T10:47:46.268Z,42.08
2022-08-10T10:50:20.542Z,41.72
2022-08-10T10:52:59.607Z,41.45
2022-08-10T10:56:13.592Z,40.60
2022-08-10T10:58:29.476Z,40.70
2022-08-10T11:01:08.583Z,41.02
2022-08-10T11:03:54.014Z,39.85
2022-08-10T11:06:50.873Z,39.81
2022-08-10T11:10:03.440Z,40.22
2022-08-10T11:12:26.275Z,39.59
2022-08-10T11:15:05.038Z,39.14
2022-08-10T11:17:41.682Z,39.49
2022-08-10T11:20:16.976Z,39.59
2022-08-10T11:23:04.267Z,38.64
2022-08-10T11:25:35.426Z,38.78
2022-08-10T11:28:10.565Z,38.64
2022-08-10T11:30:47.717Z,38.56
2022-08-10T11:33:30.745Z,38.32
2022-08-10T11:36:08.594Z,37.89
2022-08-10T11:39:12.626Z,38.40
2022-08-10T11:42:07.823Z,38.65
2022-08-10T11:44:39.424Z,37.28
2022-08-10T11:47:13.361Z,37.26
2022-08-10T11:49:50.297Z,36.68
2022-08-10T11:52:29.758Z,36.33
2022-08-10T11:55:06.215Z,35.83
2022-08-10T11:57:54.482Z,35.61
2022-08-10T12:00:23.219Z,34.24
2022-08-10T12:02:56.609Z,34.39
2022-08-10T12:05:48.265Z,33.14
2022-08-10T12:10:04.573Z,32.72
2022-08-10T12:11:12.587Z,31.79
2022-08-10T12:14:20.111Z,30.70
2022-08-10T12:16:51.376Z,30.83
2022-08-10T12:19:28.953Z,29.98
2022-08-10T12:22:06.079Z,30.62
2022-08-10T12:24:43.693Z,30.66
2022-08-10T12:27:17.799Z,29.79
2022-08-10T12:29:51.834Z,28.74
2022-08-10T12:32:30.502Z,28.15
2022-08-10T12:35:26.578Z,28.10
2022-08-10T12:38:07.002Z,28.18
2022-08-10T12:40:44.416Z,27.27
2022-08-10T12:44:07.700Z,26.36
2022-08-10T12:46:13.841Z,25.40
2022-08-10T12:48:53.135Z,25.81
2022-08-10T12:51:24.643Z,25.58
2022-08-10T12:53:58.755Z,24.72
2022-08-10T12:56:32.560Z,25.69
2022-08-10T12:59:05.560Z,25.63
2022-08-10T13:02:09.903Z,24.61
2022-08-10T13:04:33.078Z,24.41
2022-08-10T13:07:03.853Z,23.64
2022-08-10T13:09:33.832Z,23.65
2022-08-10T13:12:38.460Z,22.08
2022-08-10T13:15:31.050Z,22.96
2022-08-10T13:18:18.702Z,23.06
2022-08-10T13:20:53.744Z,22.46
2022-08-10T13:23:26.899Z,22.01
2022-08-10T13:25:59.625Z,22.15
2022-08-10T13:28:43.276Z,22.17
2022-08-10T13:31:19.403Z,22.19
2022-08-10T13:34:41.300Z,21.79
2022-08-10T13:36:43.089Z,21.25
2022-08-10T13:39:13.943Z,21.48
2022-08-10T13:41:45.417Z,21.64
2022-08-10T13:44:30.726Z,21.47
2022-08-10T13:46:59.476Z,21.36
2022-08-10T13:49:30.692Z,20.67
2022-08-10T13:51:59.721Z,20.39
2022-08-10T13:54:30.812Z,20.02
2022-08-10T13:57:00.354Z,20.50
2022-08-10T14:00:36.328Z,20.23
2022-08-10T14:02:28.200Z,19.88
2022-08-10T14:04:59.221Z,19.51
2022-08-10T14:07:29.144Z,19.89
2022-08-10T14:10:07.217Z,19.41
2022-08-10T14:12:38.071Z,19.59
2022-08-10T14:15:13.162Z,19.47
2022-08-10T14:17:45.165Z,19.10
2022-08-10T14:20:21.319Z,18.73
2022-08-10T14:22:50.365Z,18.50
2022-08-10T14:25:18.650Z,18.13
2022-08-10T14:28:02.855Z,17.79
2022-08-10T14:30:34.433Z,17.85
2022-08-10T14:33:05.189Z,17.78
2022-08-10T14:36:20.785Z,17.67
2022-08-10T14:38:32.027Z,16.43
2022-08-10T14:41:03.827Z,17.06
2022-08-10T14:43:41.063Z,17.21
2022-08-10T14:46:19.904Z,16.91
2022-08-10T14:48:52.573Z,17.02
2022-08-10T14:51:27.808Z,17.03
2022-08-10T14:54:15.903Z,16.58
2022-08-10T14:56:48.803Z,16.41
2022-08-10T14:59:18.727Z,15.75
2022-08-10T15:02:00.158Z,16.10
2022-08-10T15:04:47.846Z,15.65
2022-08-10T15:07:22.120Z,15.40
2022-08-10T15:10:00.594Z,15.41
2022-08-10T15:12:34.628Z,15.68
2022-08-10T15:15:06.258Z,15.59
2022-08-10T15:17:39.601Z,15.87
2022-08-10T15:20:20.725Z,16.06
2022-08-10T15:22:54.136Z,15.90
2022-08-10T15:25:26.430Z,15.95
2022-08-10T15:28:09.534Z,16.24
2022-08-10T15:30:42.836Z,15.05
2022-08-10T15:34:03.463Z,15.47
2022-08-10T15:36:44.099Z,15.18
2022-08-10T15:40:21.786Z,15.73
2022-08-10T15:42:21.941Z,15.60
2022-08-10T15:44:54.918Z,15.97
2022-08-10T15:47:27.321Z,15.88
2022-08-10T15:50:22.506Z,15.95
2022-08-10T15:53:02.614Z,15.85
2022-08-10T15:55:43.165Z,16.36
2022-08-10T15:58:37.503Z,15.62
2022-08-10T16:02:04.454Z,15.43
2022-08-10T16:04:08.409Z,16.07
2022-08-10T16:06:43.898Z,15.30
2022-08-10T16:10:22.197Z,15.77
2022-08-10T16:12:14.662Z,15.29
2022-08-10T16:14:49.077Z,15.04
2022-08-10T16:17:18.986Z,15.40
2022-08-10T16:19:51.129Z,15.50
2022-08-10T16:22:35.794Z,14.82
2022-08-10T16:25:15.634Z,15.37
2022-08-10T16:27:45.126Z,14.82
2022-08-10T16:30:14.907Z,14.29
2022-08-10T16:32:46.648Z,14.37
2022-08-10T16:35:18.991Z,14.55
2022-08-10T16:37:58.939Z,15.22
2022-08-10T16:40:29.588Z,15.16
2022-08-10T16:43:00.151Z,15.16
2022-08-10T16:45:38.713Z,15.00
2022-08-10T16:48:08.880Z,15.20
2022-08-10T16:50:45.313Z,15.19
2022-08-10T16:53:18.591Z,15.85
2022-08-10T16:55:51.201Z,15.37
2022-08-10T16:58:27.303Z,14.84
2022-08-10T17:01:05.365Z,15.38
2022-08-10T17:04:06.568Z,15.30
2022-08-10T17:06:34.868Z,15.17
2022-08-10T17:09:08.213Z,15.46
2022-08-10T17:11:41.460Z,15.55
2022-08-10T17:14:10.903Z,15.34
2022-08-10T17:16:44.085Z,15.85
2022-08-10T17:19:15.532Z,15.69
2022-08-10T17:21:52.384Z,15.85
2022-08-10T17:24:28.784Z,16.05
2022-08-10T17:28:04.089Z,16.12
2022-08-10T17:30:03.271Z,15.90
2022-08-10T17:32:44.310Z,16.01
2022-08-10T17:35:23.135Z,16.71
2022-08-10T17:37:58.039Z,17.07
2022-08-10T17:40:29.902Z,18.01
2022-08-10T17:42:59.655Z,18.16
2022-08-10T17:45:48.720Z,18.27
2022-08-10T17:48:26.716Z,18.42
2022-08-10T17:50:57.608Z,19.01
2022-08-10T17:53:37.063Z,18.96
2022-08-10T17:56:08.167Z,19.37
2022-08-10T17:58:37.101Z,19.22
2022-08-10T18:01:41.239Z,19.85
2022-08-10T18:04:14.241Z,19.58
2022-08-10T18:06:55.676Z,20.20
2022-08-10T18:09:32.116Z,20.60
2022-08-10T18:12:10.444Z,20.92
2022-08-10T18:14:49.653Z,20.72
2022-08-10T18:17:22.651Z,21.50
2022-08-10T18:19:55.543Z,22.11
2022-08-10T18:22:26.146Z,22.00
2022-08-10T18:24:55.803Z,22.23
2022-08-10T18:28:00.937Z,22.71
2022-08-10T18:30:16.999Z,23.86
2022-08-10T18:32:54.420Z,23.85
2022-08-10T18:35:34.710Z,24.89
2022-08-10T18:38:05.736Z,26.13
2022-08-10T18:40:37.138Z,27.74
2022-08-10T18:44:05.646Z,29.56
2022-08-10T18:46:01.126Z,31.74
2022-08-10T18:48:42.114Z,33.81
2022-08-10T18:51:13.119Z,35.33
2022-08-10T18:53:48.348Z,36.12
2022-08-10T18:56:33.556Z,37.21
2022-08-10T18:59:35.117Z,38.67
2022-08-10T19:02:28.716Z,39.68
2022-08-10T19:05:30.105Z,40.32
2022-08-10T19:08:35.681Z,41.21
2022-08-10T19:11:13.009Z,42.40
2022-08-10T19:13:54.303Z,43.01
2022-08-10T19:16:37.366Z,43.51
2022-08-10T19:19:23.075Z,44.23
2022-08-10T19:22:02.296Z,45.17
2022-08-10T19:24:48.654Z,45.57
2022-08-10T19:27:37.034Z,46.33
2022-08-10T19:30:13.328Z,47.25
2022-08-10T19:33:04.158Z,47.89
2022-08-10T19:36:03.452Z,48.82
2022-08-10T19:38:49.604Z,49.13
2022-08-10T19:41:40.374Z,49.79
2022-08-10T19:44:22.442Z,50.52
2022-08-10T19:46:58.214Z,50.80
2022-08-10T19:49:42.842Z,51.77
2022-08-10T19:52:22.568Z,51.88
2022-08-10T19:55:02.186Z,52.34
2022-08-10T19:57:36.922Z,52.75
2022-08-10T20:00:19.522Z,53.72
2022-08-10T20:03:07.874Z,54.18
2022-08-10T20:06:18.341Z,54.89
2022-08-10T20:08:53.977Z,54.87
2022-08-10T20:11:45.862Z,55.44
2022-08-10T20:14:22.963Z,55.97
2022-08-10T20:16:56.565Z,56.54
2022-08-10T20:19:53.171Z,56.88
2022-08-10T20:22:30.438Z,57.56
2022-08-10T20:25:07.375Z,57.74
2022-08-10T20:28:00.139Z,58.56
2022-08-10T20:30:33.197Z,59.31
2022-08-10T20:33:11.567Z,59.60
2022-08-10T20:35:50.390Z,60.16
2022-08-10T20:38:28.855Z,60.50
2022-08-10T20:41:13.596Z,60.89
2022-08-10T20:43:57.680Z,61.54
2022-08-10T20:46:34.856Z,62.11
2022-08-10T20:49:11.782Z,62.64
2022-08-10T20:51:57.978Z,62.90
2022-08-10T20:54:43.401Z,63.28
2022-08-10T20:57:54.586Z,63.28
2022-08-10T21:00:27.140Z,64.05
2022-08-10T21:03:36.030Z,63.98
2022-08-10T21:06:47.596Z,64.02
2022-08-10T21:09:37.992Z,64.30
2022-08-10T21:12:50.555Z,64.60
2022-08-10T21:15:41.944Z,64.72
2022-08-10T21:18:27.834Z,64.83
2022-08-10T21:21:10.530Z,65.36
2022-08-10T21:23:50.318Z,65.44
2022-08-10T21:26:29.451Z,65.69
2022-08-10T21:29:21.356Z,65.86
2022-08-10T21:32:07.205Z,65.92
2022-08-10T21:35:01.252Z,65.80
2022-08-10T21:37:40.005Z,65.99
2022-08-10T21:40:36.095Z,65.92
2022-08-10T21:43:44.447Z,65.94
2022-08-10T21:46:54.841Z,65.98
2022-08-10T21:49:57.315Z,66.02
2022-08-10T21:53:00.894Z,66.46
2022-08-10T21:56:04.521Z,66.53
2022-08-10T21:59:05.292Z,66.55
2022-08-10T22:01:56.959Z,66.88
2022-08-10T22:04:44.760Z,67.25
2022-08-10T22:07:36.567Z,67.71
2022-08-10T22:10:25.929Z,67.63
2022-08-10T22:13:19.652Z,68.19
2022-08-10T22:16:11.985Z,68.51
2022-08-10T22:19:03.581Z,68.45
2022-08-10T22:22:06.004Z,68.48
2022-08-10T22:25:17.517Z,68.91
2022-08-10T22:28:17.724Z,69.33
2022-08-10T22:31:32.263Z,69.72
2022-08-10T22:34:35.358Z,69.51
2022-08-10T22:37:38.636Z,69.97
2022-08-10T22:40:32.569Z,70.57
2022-08-10T22:43:31.082Z,70.43
2022-08-10T22:46:32.852Z,70.77
2022-08-10T22:49:00.305Z,70.84
2022-08-10T22:51:53.928Z,71.21
2022-08-10T22:54:46.042Z,71.37
2022-08-10T22:57:33.661Z,71.88
2022-08-10T23:00:14.581Z,71.81
2022-08-10T23:02:53.546Z,72.30
2022-08-10T23:05:31.720Z,72.54
2022-08-10T23:08:10.859Z,72.42
2022-08-10T23:10:48.950Z,72.83
2022-08-10T23:13:26.397Z,72.83
2022-08-10T23:16:29.093Z,72.82
2022-08-10T23:19:10.384Z,73.04
2022-08-10T23:22:04.507Z,73.53
2022-08-10T23:24:37.350Z,73.54
2022-08-10T23:27:13.141Z,73.91
2022-08-10T23:30:03.858Z,74.15
2022-08-10T23:32:43.283Z,74.14
2022-08-10T23:37:56.776Z,74.59
2022-08-10T23:40:26.511Z,74.67
2022-08-10T23:42:55.554Z,75.08
2022-08-10T23:45:27.866Z,75.20
2022-08-10T23:48:01.906Z,75.53
2022-08-10T23:50:30.970Z,75.46
2022-08-10T23:53:13.706Z,75.68
2022-08-10T23:55:49.542Z,75.92
2022-08-10T23:58:31.579Z,76.46
